createdAt,value
2022-12-12T00:00:37.190Z,1.30
2022-12-12T00:03:05.247Z,1.30
2022-12-12T00:05:32.642Z,1.50
2022-12-12T00:07:59.940Z,1.80
2022-12-12T00:10:27.680Z,1.40
2022-12-12T00:12:54.912Z,2.10
2022-12-12T00:15:22.307Z,1.50
2022-12-12T00:17:49.525Z,3.00
2022-12-12T00:20:16.960Z,1.50
2022-12-12T00:22:44.155Z,1.40
2022-12-12T00:25:12.238Z,1.40
2022-12-12T00:27:39.730Z,1.50
2022-12-12T00:30:08.304Z,1.40
2022-12-12T00:32:35.585Z,1.40
2022-12-12T00:35:02.917Z,1.50
2022-12-12T00:37:30.280Z,1.50
2022-12-12T00:39:57.946Z,1.50
2022-12-12T00:42:27.637Z,1.50
2022-12-12T00:44:55.063Z,1.50
2022-12-12T00:47:22.495Z,1.50
2022-12-12T00:49:49.732Z,1.40
2022-12-12T00:52:19.827Z,1.40
2022-12-12T00:54:47.124Z,4.20
2022-12-12T00:57:14.487Z,2.30
2022-12-12T00:59:41.896Z,1.50
2022-12-12T01:02:09.384Z,1.50
2022-12-12T01:04:36.606Z,1.60
2022-12-12T01:07:03.933Z,1.60
2022-12-12T01:09:31.248Z,1.50
2022-12-12T01:11:58.468Z,3.00
2022-12-12T01:14:25.856Z,1.60
2022-12-12T01:16:53.149Z,1.60
2022-12-12T01:19:20.468Z,1.50
2022-12-12T01:21:47.888Z,1.60
2022-12-12T01:24:15.142Z,1.50
2022-12-12T01:26:42.456Z,1.50
2022-12-12T01:29:09.720Z,1.70
2022-12-12T01:31:37.047Z,1.60
2022-12-12T01:34:04.434Z,1.60
2022-12-12T01:36:31.735Z,1.50
2022-12-12T01:39:00.581Z,1.50
2022-12-12T01:41:27.899Z,1.60
2022-12-12T01:43:55.755Z,1.60
2022-12-12T01:46:34.067Z,1.60
2022-12-12T01:49:24.245Z,1.50
2022-12-12T01:51:56.694Z,1.80
2022-12-12T01:54:29.059Z,1.50
2022-12-12T01:56:59.076Z,1.50
2022-12-12T01:59:28.220Z,1.80
2022-12-12T02:01:56.891Z,1.30
2022-12-12T02:04:26.339Z,1.50
2022-12-12T02:06:55.178Z,1.40
2022-12-12T02:09:25.116Z,1.40
2022-12-12T02:11:55.822Z,1.40
2022-12-12T02:14:30.147Z,1.60
2022-12-12T02:17:24.912Z,1.40
2022-12-12T02:20:29.587Z,1.40
2022-12-12T02:23:16.088Z,1.40
2022-12-12T02:26:10.836Z,1.50
2022-12-12T02:28:52.910Z,1.40
2022-12-12T02:31:22.855Z,1.70
2022-12-12T02:33:59.359Z,1.40
2022-12-12T02:37:01.837Z,1.40
2022-12-12T02:40:15.467Z,1.50
2022-12-12T02:43:11.444Z,1.40
2022-12-12T02:45:45.564Z,1.50
2022-12-12T02:48:16.569Z,1.60
2022-12-12T02:50:44.907Z,1.60
2022-12-12T02:53:12.221Z,1.60
2022-12-12T02:55:39.481Z,1.50
2022-12-12T02:58:07.022Z,1.50
2022-12-12T03:00:45.304Z,1.60
2022-12-12T03:03:40.211Z,1.70
2022-12-12T03:06:57.780Z,1.80
2022-12-12T03:09:34.692Z,1.60
2022-12-12T03:12:05.946Z,1.70
2022-12-12T03:14:52.204Z,2.40
2022-12-12T03:17:25.351Z,1.70
2022-12-12T03:20:21.072Z,1.60
2022-12-12T03:23:29.611Z,1.60
2022-12-12T03:26:00.266Z,1.60
2022-12-12T03:28:46.935Z,1.70
2022-12-12T03:31:18.154Z,1.80
2022-12-12T03:34:08.365Z,1.70
2022-12-12T03:36:51.255Z,1.80
2022-12-12T03:39:28.694Z,1.80
2022-12-12T03:42:02.804Z,1.70
2022-12-12T03:44:41.653Z,1.80
2022-12-12T03:47:23.393Z,1.80
2022-12-12T03:50:16.620Z,1.80
2022-12-12T03:52:54.352Z,1.70
2022-12-12T03:55:26.695Z,2.60
2022-12-12T03:58:05.289Z,1.70
2022-12-12T04:00:37.222Z,2.00
2022-12-12T04:03:44.658Z,1.60
2022-12-12T04:06:27.004Z,1.70
2022-12-12T04:09:18.011Z,1.80
2022-12-12T04:12:10.156Z,1.70
2022-12-12T04:14:53.041Z,1.80
2022-12-12T04:17:36.452Z,1.70
2022-12-12T04:21:05.790Z,1.60
2022-12-12T04:23:40.224Z,1.60
2022-12-12T04:26:34.164Z,1.80
2022-12-12T04:29:15.760Z,1.40
2022-12-12T04:32:06.915Z,1.60
2022-12-12T04:34:50.084Z,1.70
2022-12-12T04:37:25.852Z,1.60
2022-12-12T04:39:58.218Z,1.70
2022-12-12T04:42:30.561Z,1.70
2022-12-12T04:45:04.978Z,1.70
2022-12-12T04:47:35.244Z,1.70
2022-12-12T04:50:03.928Z,1.70
2022-12-12T04:52:33.805Z,1.70
2022-12-12T04:55:05.387Z,1.70
2022-12-12T04:57:47.318Z,1.80
2022-12-12T05:00:15.157Z,1.80
2022-12-12T05:03:06.171Z,1.80
2022-12-12T05:06:01.063Z,1.80
2022-12-12T05:08:36.169Z,1.90
2022-12-12T05:11:05.721Z,1.90
2022-12-12T05:13:38.696Z,1.90
2022-12-12T05:16:21.766Z,1.90
2022-12-12T05:18:49.404Z,1.90
2022-12-12T05:21:16.733Z,1.90
2022-12-12T05:23:43.966Z,2.00
2022-12-12T05:26:27.050Z,2.00
2022-12-12T05:28:54.951Z,2.00
2022-12-12T05:31:22.653Z,2.00
2022-12-12T05:33:50.348Z,2.00
2022-12-12T05:36:17.742Z,2.00
2022-12-12T05:38:45.216Z,1.90
2022-12-12T05:41:12.467Z,2.10
2022-12-12T05:43:40.035Z,2.10
2022-12-12T05:46:07.443Z,2.10
2022-12-12T05:48:34.751Z,2.10
2022-12-12T05:51:02.658Z,1.80
2022-12-12T05:53:30.339Z,2.10
2022-12-12T05:55:58.392Z,2.00
2022-12-12T05:58:25.693Z,2.00
2022-12-12T06:00:57.250Z,2.00
2022-12-12T06:03:27.571Z,1.90
2022-12-12T06:05:54.797Z,1.90
2022-12-12T06:08:25.043Z,1.90
2022-12-12T06:10:52.720Z,1.80
2022-12-12T06:13:20.007Z,2.00
2022-12-12T06:15:47.313Z,1.90
2022-12-12T06:18:14.998Z,1.90
2022-12-12T06:20:43.224Z,1.90
2022-12-12T06:23:10.446Z,1.90
2022-12-12T06:25:37.685Z,1.90
2022-12-12T06:28:05.045Z,1.80
2022-12-12T06:30:32.267Z,1.90
2022-12-12T06:32:59.543Z,1.90
2022-12-12T06:35:26.784Z,2.00
2022-12-12T06:37:54.055Z,1.90
2022-12-12T06:40:21.415Z,2.30
2022-12-12T06:42:49.074Z,2.00
2022-12-12T06:45:17.006Z,2.00
2022-12-12T06:47:44.578Z,2.20
2022-12-12T06:50:12.037Z,2.10
2022-12-12T06:52:39.336Z,2.00
2022-12-12T06:55:06.898Z,2.70
2022-12-12T06:57:34.692Z,2.00
2022-12-12T07:00:02.184Z,1.90
2022-12-12T07:02:30.403Z,2.00
2022-12-12T07:04:58.203Z,2.00
2022-12-12T07:07:25.558Z,1.70
2022-12-12T07:09:52.787Z,1.90
2022-12-12T07:12:20.274Z,2.00
2022-12-12T07:14:47.789Z,2.00
2022-12-12T07:17:14.987Z,2.20
2022-12-12T07:19:42.283Z,2.20
2022-12-12T07:22:10.677Z,2.00
2022-12-12T07:24:38.318Z,1.80
2022-12-12T07:27:06.836Z,2.00
2022-12-12T07:29:34.303Z,2.00
2022-12-12T07:32:02.251Z,1.90
2022-12-12T07:34:30.096Z,1.90
2022-12-12T07:37:02.618Z,1.90
2022-12-12T07:39:34.068Z,2.00
2022-12-12T07:42:01.279Z,2.00
2022-12-12T07:44:28.743Z,2.00
2022-12-12T07:46:59.026Z,2.00
2022-12-12T07:49:27.804Z,2.00
2022-12-12T07:51:55.353Z,2.00
2022-12-12T07:54:22.623Z,2.00
2022-12-12T07:56:50.481Z,2.00
2022-12-12T07:59:17.928Z,2.10
2022-12-12T08:01:45.233Z,2.10
2022-12-12T08:04:12.511Z,2.10
2022-12-12T08:06:39.722Z,2.10
2022-12-12T08:09:07.006Z,2.10
2022-12-12T08:11:34.336Z,2.10
2022-12-12T08:14:01.699Z,2.00
2022-12-12T08:16:29.892Z,1.90
2022-12-12T08:18:58.686Z,1.90
2022-12-12T08:21:27.301Z,1.90
2022-12-12T08:24:02.221Z,1.90
2022-12-12T08:26:30.444Z,1.90
2022-12-12T08:28:58.447Z,1.90
2022-12-12T08:31:26.106Z,1.90
2022-12-12T08:33:53.632Z,2.00
2022-12-12T08:36:24.334Z,1.90
2022-12-12T08:38:52.204Z,2.00
2022-12-12T08:41:20.148Z,2.60
2022-12-12T08:43:47.455Z,1.90
2022-12-12T08:46:18.076Z,1.90
2022-12-12T08:48:46.778Z,2.80
2022-12-12T08:51:15.098Z,2.00
2022-12-12T08:53:50.257Z,2.10
2022-12-12T08:56:18.848Z,1.90
2022-12-12T08:58:46.575Z,1.90
2022-12-12T09:01:19.661Z,2.10
2022-12-12T09:03:47.948Z,1.90
2022-12-12T09:06:15.945Z,2.00
2022-12-12T09:08:43.493Z,1.90
2022-12-12T09:11:11.396Z,1.90
2022-12-12T09:13:39.822Z,2.00
2022-12-12T09:16:08.951Z,1.80
2022-12-12T09:18:37.368Z,2.00
2022-12-12T09:21:05.550Z,2.00
2022-12-12T09:23:33.038Z,1.90
2022-12-12T09:26:05.911Z,2.20
2022-12-12T09:28:33.362Z,2.20
2022-12-12T09:31:00.682Z,2.10
2022-12-12T09:33:28.039Z,2.10
2022-12-12T09:36:03.770Z,2.20
2022-12-12T09:38:31.078Z,2.10
2022-12-12T09:41:00.684Z,2.10
2022-12-12T09:43:33.547Z,2.20
2022-12-12T09:46:04.070Z,2.20
2022-12-12T09:48:42.000Z,2.20
2022-12-12T09:51:11.542Z,2.20
2022-12-12T09:53:41.649Z,2.20
2022-12-12T09:56:56.302Z,2.30
2022-12-12T09:59:32.502Z,2.20
2022-12-12T10:02:23.328Z,2.30
2022-12-12T10:05:28.273Z,2.10
2022-12-12T10:08:22.214Z,2.40
2022-12-12T10:10:58.070Z,2.30
2022-12-12T10:13:28.910Z,2.40
2022-12-12T10:16:06.728Z,1.90
2022-12-12T10:18:39.900Z,2.40
2022-12-12T10:21:15.802Z,2.30
2022-12-12T10:23:50.843Z,2.50
2022-12-12T10:26:22.047Z,2.40
2022-12-12T10:29:00.085Z,2.50
2022-12-12T10:31:36.907Z,2.40
2022-12-12T10:34:29.120Z,2.50
2022-12-12T10:37:20.908Z,2.50
2022-12-12T10:40:14.052Z,2.40
2022-12-12T10:42:45.769Z,2.50
2022-12-12T10:45:54.070Z,2.40
2022-12-12T10:48:21.537Z,2.50
2022-12-12T10:50:50.223Z,2.30
2022-12-12T10:53:19.429Z,2.70
2022-12-12T10:55:59.074Z,2.60
2022-12-12T10:58:28.452Z,2.50
2022-12-12T11:01:10.180Z,2.40
2022-12-12T11:03:57.251Z,2.50
2022-12-12T11:06:36.222Z,2.80
2022-12-12T11:09:18.553Z,2.60
2022-12-12T11:11:57.488Z,2.60
2022-12-12T11:14:51.885Z,3.20
2022-12-12T11:17:26.563Z,2.60
2022-12-12T11:19:57.001Z,2.60
2022-12-12T11:22:24.925Z,2.60
2022-12-12T11:24:52.870Z,2.70
2022-12-12T11:27:31.319Z,2.70
2022-12-12T11:30:21.166Z,2.70
2022-12-12T11:32:52.049Z,2.70
2022-12-12T11:35:31.847Z,2.70
2022-12-12T11:38:06.393Z,2.70
2022-12-12T11:40:36.612Z,2.70
2022-12-12T11:43:22.321Z,2.70
2022-12-12T11:46:16.875Z,2.70
2022-12-12T11:48:56.955Z,2.70
2022-12-12T11:51:40.358Z,2.90
2022-12-12T11:54:12.031Z,2.80
2022-12-12T11:57:04.595Z,2.80
2022-12-12T11:59:46.857Z,3.10
2022-12-12T12:02:32.286Z,2.80
2022-12-12T12:05:02.306Z,3.00
2022-12-12T12:07:48.949Z,2.90
2022-12-12T12:10:26.225Z,2.80
2022-12-12T12:13:01.427Z,2.90
2022-12-12T12:15:32.298Z,2.80
2022-12-12T12:18:26.591Z,2.90
2022-12-12T12:21:27.026Z,3.10
2022-12-12T12:24:32.184Z,2.90
2022-12-12T12:27:08.444Z,2.90
2022-12-12T12:29:57.132Z,3.00
2022-12-12T12:32:53.339Z,3.00
2022-12-12T12:35:33.345Z,3.00
2022-12-12T12:38:13.060Z,3.10
2022-12-12T12:41:04.344Z,2.90
2022-12-12T12:44:09.717Z,3.10
2022-12-12T12:46:49.160Z,3.10
2022-12-12T12:49:31.476Z,3.00
2022-12-12T12:52:00.789Z,3.10
2022-12-12T12:54:42.142Z,3.10
2022-12-12T12:57:16.539Z,3.30
2022-12-12T12:59:51.450Z,3.10
2022-12-12T13:02:59.087Z,3.10
2022-12-12T13:05:51.615Z,3.20
2022-12-12T13:08:46.557Z,3.20
2022-12-12T13:11:36.585Z,3.20
2022-12-12T13:14:16.603Z,3.10
2022-12-12T13:16:45.525Z,3.10
2022-12-12T13:19:36.061Z,3.10
2022-12-12T13:22:38.945Z,3.10
2022-12-12T13:25:39.312Z,3.30
2022-12-12T13:28:21.560Z,3.10
2022-12-12T13:31:12.753Z,3.00
2022-12-12T13:33:54.382Z,3.10
2022-12-12T13:36:36.736Z,3.00
2022-12-12T13:39:06.574Z,3.00
2022-12-12T13:42:13.121Z,3.10
2022-12-12T13:44:46.012Z,3.20
2022-12-12T13:47:22.534Z,3.10
2022-12-12T13:49:53.807Z,3.30
2022-12-12T13:52:28.599Z,3.00
2022-12-12T13:55:19.000Z,3.00
2022-12-12T13:58:02.639Z,3.60
2022-12-12T14:00:35.238Z,3.10
2022-12-12T14:03:28.887Z,3.10
2022-12-12T14:06:10.699Z,3.10
2022-12-12T14:08:46.278Z,3.10
2022-12-12T14:11:32.228Z,3.20
2022-12-12T14:14:19.321Z,3.00
2022-12-12T14:16:55.453Z,3.00
2022-12-12T14:19:29.361Z,3.10
2022-12-12T14:21:56.891Z,3.00
2022-12-12T14:24:33.013Z,3.00
2022-12-12T14:27:04.794Z,3.00
2022-12-12T14:29:40.476Z,2.90
2022-12-12T14:32:13.753Z,2.90
2022-12-12T14:37:39.161Z,2.90
2022-12-12T14:40:21.379Z,2.90
2022-12-12T14:43:19.569Z,3.00
2022-12-12T14:45:49.572Z,2.90
2022-12-12T14:48:19.832Z,2.90
2022-12-12T14:51:01.207Z,2.90
2022-12-12T14:53:56.169Z,2.90
2022-12-12T14:56:29.532Z,3.00
2022-12-12T14:59:00.760Z,3.10
2022-12-12T15:01:36.065Z,3.10
2022-12-12T15:04:11.054Z,3.30
2022-12-12T15:06:43.098Z,3.70
2022-12-12T15:09:20.074Z,3.20
2022-12-12T15:11:48.621Z,2.90
2022-12-12T15:14:22.042Z,3.00
2022-12-12T15:17:07.120Z,3.10
2022-12-12T15:19:41.720Z,3.00
2022-12-12T15:22:29.893Z,3.10
2022-12-12T15:24:59.869Z,3.00
2022-12-12T15:27:34.021Z,3.10
2022-12-12T15:30:03.457Z,3.00
2022-12-12T15:32:30.814Z,3.00
2022-12-12T15:35:07.561Z,2.90
2022-12-12T15:37:36.741Z,3.00
2022-12-12T15:40:06.763Z,3.00
2022-12-12T15:42:34.375Z,3.30
2022-12-12T15:45:02.989Z,3.00
2022-12-12T15:47:30.542Z,3.00
2022-12-12T15:50:15.163Z,2.90
2022-12-12T15:52:42.876Z,3.00
2022-12-12T15:55:30.575Z,2.90
2022-12-12T15:57:58.468Z,3.00
2022-12-12T16:00:33.399Z,3.00
2022-12-12T16:03:23.892Z,2.90
2022-12-12T16:06:04.233Z,2.90
2022-12-12T16:08:33.356Z,2.80
2022-12-12T16:11:04.165Z,2.80
2022-12-12T16:13:40.769Z,2.90
2022-12-12T16:16:50.145Z,2.90
2022-12-12T16:19:35.832Z,2.80
2022-12-12T16:22:28.041Z,2.80
2022-12-12T16:25:09.297Z,2.80
2022-12-12T16:27:36.608Z,3.00
2022-12-12T16:30:05.147Z,3.10
2022-12-12T16:32:32.441Z,2.80
2022-12-12T16:34:59.888Z,2.80
2022-12-12T16:37:27.354Z,2.70
2022-12-12T16:39:54.918Z,2.70
2022-12-12T16:42:24.062Z,2.60
2022-12-12T16:44:51.620Z,2.60
2022-12-12T16:47:22.016Z,2.50
2022-12-12T16:49:49.814Z,2.50
2022-12-12T16:52:18.909Z,2.40
2022-12-12T16:54:52.828Z,2.40
2022-12-12T16:57:21.977Z,2.30
2022-12-12T16:59:49.416Z,2.30
2022-12-12T17:02:22.063Z,2.60
2022-12-12T17:04:50.303Z,2.20
2022-12-12T17:07:17.869Z,2.10
2022-12-12T17:09:45.204Z,2.10
2022-12-12T17:12:13.201Z,2.10
2022-12-12T17:14:40.653Z,2.00
2022-12-12T17:17:07.983Z,1.90
2022-12-12T17:19:35.273Z,2.30
2022-12-12T17:22:03.190Z,2.00
2022-12-12T17:26:58.571Z,2.30
2022-12-12T17:29:26.024Z,1.80
2022-12-12T17:31:53.350Z,2.00
2022-12-12T17:34:20.674Z,1.90
2022-12-12T17:39:15.720Z,1.80
2022-12-12T17:41:42.987Z,1.30
2022-12-12T17:44:10.293Z,1.80
2022-12-12T17:46:37.612Z,1.80
2022-12-12T17:49:05.143Z,1.70
2022-12-12T17:51:32.534Z,2.50
2022-12-12T17:54:00.222Z,1.80
2022-12-12T17:56:27.709Z,1.70
2022-12-12T17:58:55.477Z,1.60
2022-12-12T18:01:29.263Z,1.70
2022-12-12T18:03:57.829Z,2.00
2022-12-12T18:06:26.452Z,1.60
2022-12-12T18:08:54.557Z,1.70
2022-12-12T18:11:26.839Z,1.50
2022-12-12T18:14:06.798Z,1.70
2022-12-12T18:16:35.923Z,2.90
2022-12-12T18:19:04.109Z,1.60
2022-12-12T18:24:21.756Z,1.40
2022-12-12T18:26:53.880Z,1.40
2022-12-12T18:29:22.125Z,1.80
2022-12-12T18:31:51.869Z,1.40
2022-12-12T18:34:19.585Z,1.50
2022-12-12T18:36:46.906Z,1.30
2022-12-12T18:39:14.251Z,1.30
2022-12-12T18:41:41.560Z,1.40
2022-12-12T18:44:12.941Z,1.30
2022-12-12T18:46:43.446Z,1.40
2022-12-12T18:49:15.844Z,2.20
2022-12-12T18:51:45.377Z,1.30
2022-12-12T18:54:15.979Z,1.50
2022-12-12T18:56:46.004Z,1.50
2022-12-12T18:59:14.245Z,1.70
2022-12-12T19:01:41.733Z,2.00
2022-12-12T19:04:12.606Z,2.10
2022-12-12T19:06:43.100Z,1.90
2022-12-12T19:09:16.216Z,2.00
2022-12-12T19:11:44.390Z,2.10
2022-12-12T19:14:13.422Z,2.20
2022-12-12T19:16:42.293Z,2.30
2022-12-12T19:19:10.342Z,2.30
2022-12-12T19:21:38.704Z,2.40
2022-12-12T19:24:09.175Z,2.40
2022-12-12T19:26:38.352Z,2.40
2022-12-12T19:29:09.929Z,2.60
2022-12-12T19:31:37.532Z,2.50
2022-12-12T19:34:06.662Z,2.50
2022-12-12T19:36:35.705Z,2.90
2022-12-12T19:39:05.057Z,2.50
2022-12-12T19:41:32.945Z,2.80
2022-12-12T19:44:01.691Z,2.60
2022-12-12T19:46:30.968Z,2.60
2022-12-12T19:49:03.873Z,2.50
2022-12-12T19:51:32.799Z,2.60
2022-12-12T19:54:01.619Z,2.80
2022-12-12T19:56:31.503Z,2.70
2022-12-12T19:58:59.665Z,2.70
2022-12-12T20:01:32.190Z,2.70
2022-12-12T20:04:05.230Z,2.60
2022-12-12T20:06:40.901Z,2.50
2022-12-12T20:09:13.539Z,2.60
2022-12-12T20:11:41.317Z,2.60
2022-12-12T20:14:16.570Z,2.70
2022-12-12T20:16:44.512Z,2.60
2022-12-12T20:19:13.134Z,2.60
2022-12-12T20:22:00.283Z,2.60
2022-12-12T20:24:28.999Z,2.60
2022-12-12T20:26:56.980Z,3.40
2022-12-12T20:29:24.261Z,2.80
2022-12-12T20:31:51.991Z,2.60
2022-12-12T20:34:24.470Z,2.50
2022-12-12T20:36:52.568Z,2.60
2022-12-12T20:39:21.937Z,2.70
2022-12-12T20:41:50.580Z,2.60
2022-12-12T20:44:17.851Z,2.60
2022-12-12T20:46:46.379Z,2.50
2022-12-12T20:49:17.364Z,2.80
2022-12-12T20:52:00.651Z,2.60
2022-12-12T20:54:29.177Z,2.60
2022-12-12T20:56:58.383Z,2.40
2022-12-12T20:59:26.655Z,2.50
2022-12-12T21:01:54.525Z,2.50
2022-12-12T21:04:22.424Z,2.60
2022-12-12T21:06:51.542Z,2.60
2022-12-12T21:09:24.795Z,2.60
2022-12-12T21:11:54.248Z,2.70
2022-12-12T21:14:21.803Z,2.60
2022-12-12T21:16:49.122Z,2.60
2022-12-12T21:19:18.703Z,2.60
2022-12-12T21:21:46.483Z,2.70
2022-12-12T21:24:16.772Z,2.60
2022-12-12T21:26:44.787Z,2.60
2022-12-12T21:29:12.196Z,2.40
2022-12-12T21:31:50.371Z,2.50
2022-12-12T21:34:21.833Z,2.30
2022-12-12T21:36:56.075Z,2.60
2022-12-12T21:39:26.700Z,2.10
2022-12-12T21:41:54.473Z,2.10
2022-12-12T21:44:22.122Z,2.20
2022-12-12T21:46:49.640Z,2.10
2022-12-12T21:49:26.514Z,2.10
2022-12-12T21:51:56.268Z,2.00
2022-12-12T21:54:24.715Z,2.00
2022-12-12T21:56:53.180Z,1.90
2022-12-12T21:59:20.517Z,1.90
2022-12-12T22:01:47.905Z,2.00
2022-12-12T22:04:16.051Z,1.80
2022-12-12T22:06:44.898Z,1.70
2022-12-12T22:12:31.608Z,1.40
2022-12-12T22:14:58.945Z,1.60
2022-12-12T22:17:26.280Z,1.60
2022-12-12T22:19:53.751Z,1.50
2022-12-12T22:24:48.776Z,1.70
2022-12-12T22:27:16.185Z,1.40
2022-12-12T22:32:11.264Z,1.40
2022-12-12T22:34:38.614Z,1.10
2022-12-12T22:37:05.928Z,1.20
2022-12-12T22:39:33.333Z,1.10
2022-12-12T22:42:00.824Z,1.20
2022-12-12T22:44:28.250Z,1.30
2022-12-12T22:46:55.974Z,1.20
2022-12-12T22:49:26.111Z,1.20
2022-12-12T22:51:55.783Z,1.30
2022-12-12T22:54:23.242Z,1.10
2022-12-12T22:56:50.738Z,1.10
2022-12-12T22:59:18.092Z,0.90
2022-12-12T23:01:45.351Z,1.00
2022-12-12T23:04:13.776Z,1.00
2022-12-12T23:06:42.421Z,1.00
2022-12-12T23:09:18.724Z,0.80
2022-12-12T23:11:46.365Z,0.90
2022-12-12T23:14:17.357Z,0.90
2022-12-12T23:16:45.314Z,0.90
2022-12-12T23:19:15.031Z,0.90
2022-12-12T23:21:42.740Z,0.80
2022-12-12T23:24:10.282Z,0.80
2022-12-12T23:26:38.598Z,0.80
2022-12-12T23:29:09.132Z,0.90
2022-12-12T23:31:37.908Z,0.70
2022-12-12T23:34:08.800Z,0.70
2022-12-12T23:36:36.273Z,0.70
2022-12-12T23:39:07.940Z,0.70
2022-12-12T23:41:36.539Z,0.80
2022-12-12T23:44:05.085Z,0.70
2022-12-12T23:46:32.857Z,0.60
2022-12-12T23:49:06.312Z,1.40
2022-12-12T23:51:37.283Z,0.50
2022-12-12T23:54:06.573Z,0.60
2022-12-12T23:56:34.054Z,0.60
2022-12-12T23:59:01.884Z,0.60
